Time;durP1;ratioP1;P1;durP2;ratioP2;P2;SDS_P1;SDS_P2;PMS_P1;PMS_P2;Temp;Humidity;BMP_temperature;BMP_pressure;BME280_temperature;BME280_humidity;BME280_pressure;Samples;Min_cycle;Max_cycle;Signal;HPM_P1;HPM_P2
2024/01/21 00:01:38;;;;;;;11.07;6.55;;;;;;;0.07;82.38;102020.56;4951811;29;20310;-43
2024/01/21 00:04:06;;;;;;;12.55;6.50;;;;;;;0.05;82.42;102022.28;4949221;29;20193;-42
2024/01/21 00:06:31;;;;;;;10.50;6.20;;;;;;;0.11;81.43;102017.13;4948053;29;20198;-42
2024/01/21 00:08:57;;;;;;;10.10;6.55;;;;;;;0.08;81.33;102019.72;4951635;29;20185;-41
2024/01/21 00:11:22;;;;;;;10.57;6.30;;;;;;;0.08;80.98;101996.88;4946194;29;20178;-40
2024/01/21 00:13:48;;;;;;;8.95;5.70;;;;;;;0.13;81.11;101990.00;4941450;29;20194;-41
2024/01/21 00:16:13;;;;;;;11.68;5.80;;;;;;;0.12;80.34;101988.19;4943726;29;20298;-41
2024/01/21 00:18:39;;;;;;;9.60;5.88;;;;;;;0.08;79.98;101996.00;4945393;29;20645;-42
2024/01/21 00:21:04;;;;;;;8.02;5.38;;;;;;;0.09;80.12;101980.22;4901105;29;20641;-42
2024/01/21 00:23:30;;;;;;;7.10;5.30;;;;;;;0.08;80.01;101985.47;4948239;29;20489;-44
2024/01/21 00:25:56;;;;;;;9.02;5.75;;;;;;;0.11;79.53;101982.88;4942241;29;20273;-42
2024/01/21 00:28:21;;;;;;;6.60;5.07;;;;;;;0.08;80.26;101977.56;4947081;28;20699;-41
2024/01/21 00:30:47;;;;;;;10.80;5.78;;;;;;;0.08;79.64;101974.91;4941516;29;20774;-43
2024/01/21 00:33:12;;;;;;;7.47;5.20;;;;;;;0.09;78.78;101963.50;4940267;29;20671;-43
2024/01/21 00:35:38;;;;;;;8.23;5.68;;;;;;;0.04;79.02;101963.41;4940602;29;20238;-42
2024/01/21 00:38:03;;;;;;;10.35;5.63;;;;;;;0.07;78.70;101954.72;4944680;29;20198;-44
2024/01/21 00:40:29;;;;;;;9.55;5.03;;;;;;;0.05;78.11;101961.69;4942336;29;20235;-43
2024/01/21 00:42:59;;;;;;;7.28;5.10;;;;;;;0.05;78.03;101956.41;4946039;29;20667;-43
2024/01/21 00:45:27;;;;;;;9.70;5.25;;;;;;;0.03;77.86;101956.38;4948554;29;20548;-42
2024/01/21 00:47:53;;;;;;;8.82;5.07;;;;;;;0.00;77.64;101956.31;4946976;29;20665;-44
2024/01/21 00:50:18;;;;;;;6.70;4.22;;;;;;;0.02;77.36;101936.13;4930426;29;20277;-44
2024/01/21 00:52:44;;;;;;;6.75;5.03;;;;;;;0.03;77.14;101935.28;4947732;29;20174;-44
2024/01/21 00:55:09;;;;;;;6.15;4.38;;;;;;;-0.02;76.91;101919.38;4947889;29;20202;-42
2024/01/21 00:57:35;;;;;;;8.18;4.28;;;;;;;-0.05;76.79;101927.19;4950018;29;20206;-44
2024/01/21 01:00:00;;;;;;;7.88;4.30;;;;;;;-0.05;76.47;101932.47;4950118;29;20198;-44
2024/01/21 01:02:26;;;;;;;8.07;4.30;;;;;;;-0.08;76.00;101916.59;4947699;29;20509;-42
2024/01/21 01:04:51;;;;;;;5.55;3.75;;;;;;;-0.01;76.06;101922.91;4942153;29;20235;-43
2024/01/21 01:07:17;;;;;;;5.70;4.20;;;;;;;-0.11;75.99;101927.09;4947792;29;20286;-43
2024/01/21 01:09:42;;;;;;;8.05;4.15;;;;;;;-0.09;75.72;101916.56;4951918;29;20170;-42
2024/01/21 01:12:08;;;;;;;6.10;3.75;;;;;;;-0.08;75.72;101916.59;4947528;29;20187;-43
2024/01/21 01:14:33;;;;;;;6.65;3.70;;;;;;;-0.13;75.47;101915.63;4944574;29;20234;-42
2024/01/21 01:16:59;;;;;;;5.95;3.60;;;;;;;-0.07;75.30;101906.94;4941114;29;20670;-41
2024/01/21 01:19:25;;;;;;;6.40;4.05;;;;;;;-0.03;75.22;101907.06;4943340;29;20192;-42
2024/01/21 01:21:51;;;;;;;5.07;3.60;;;;;;;-0.08;74.64;101895.53;4943184;29;20198;-40
2024/01/21 01:24:17;;;;;;;5.05;3.45;;;;;;;-0.08;74.29;101890.25;4940672;29;20171;-41
2024/01/21 01:26:42;;;;;;;5.68;3.38;;;;;;;-0.13;74.68;101902.44;4940769;29;20210;-51
2024/01/21 01:29:08;;;;;;;5.32;3.40;;;;;;;-0.14;74.18;101897.13;4944833;29;20554;-39
2024/01/21 01:31:33;;;;;;;3.47;3.10;;;;;;;-0.14;74.00;101903.28;4950814;29;20256;-41
2024/01/21 01:33:59;;;;;;;5.72;3.40;;;;;;;-0.11;74.07;101897.19;4945604;29;20197;-41
2024/01/21 01:36:24;;;;;;;6.53;3.42;;;;;;;-0.19;73.65;101883.88;4940655;29;20276;-40
2024/01/21 01:38:49;;;;;;;5.65;2.97;;;;;;;-0.18;73.31;101877.72;4947267;28;20191;-40
2024/01/21 01:41:15;;;;;;;4.25;2.90;;;;;;;-0.24;73.30;101881.13;4942318;29;20661;-41
2024/01/21 01:43:41;;;;;;;3.25;2.33;;;;;;;-0.18;73.32;101877.72;4941632;29;20653;-40
2024/01/21 01:46:07;;;;;;;3.80;2.53;;;;;;;-0.17;73.27;101876.88;4945724;29;20222;-42
2024/01/21 01:48:33;;;;;;;3.97;2.40;;;;;;;-0.18;72.88;101875.09;4945165;29;20203;-41
2024/01/21 01:51:00;;;;;;;4.07;3.08;;;;;;;-0.15;72.37;101869.00;4941311;29;20229;-41
2024/01/21 01:53:28;;;;;;;8.50;2.90;;;;;;;-0.15;71.76;101856.75;4934899;29;20187;-42
2024/01/21 01:55:54;;;;;;;5.25;2.58;;;;;;;-0.16;72.12;101862.84;4942358;29;20191;-42
2024/01/21 01:58:24;;;;;;;4.85;2.53;;;;;;;-0.16;72.08;101859.34;4945550;29;20199;-41
2024/01/21 02:00:52;;;;;;;3.08;2.58;;;;;;;-0.15;71.13;101846.22;4940291;29;20265;-42
2024/01/21 02:03:17;;;;;;;5.10;2.80;;;;;;;-0.17;71.43;101861.09;4944812;29;20217;-42
2024/01/21 02:05:43;;;;;;;2.95;2.65;;;;;;;-0.18;71.33;101851.38;4949598;29;20222;-42
2024/01/21 02:08:08;;;;;;;3.45;2.72;;;;;;;-0.15;70.93;101850.56;4941953;29;20182;-43
2024/01/21 02:10:34;;;;;;;2.63;2.15;;;;;;;-0.15;70.33;101842.66;4941951;29;20186;-42
2024/01/21 02:12:59;;;;;;;3.83;2.70;;;;;;;-0.14;70.22;101847.09;4950242;28;20201;-42
2024/01/21 02:15:25;;;;;;;5.63;2.67;;;;;;;-0.18;70.50;101848.75;4941350;28;20215;-43
2024/01/21 02:17:50;;;;;;;2.78;2.50;;;;;;;-0.18;70.58;101834.72;4945575;28;20307;-41
2024/01/21 02:20:16;;;;;;;2.88;2.20;;;;;;;-0.15;69.86;101842.66;4948216;28;20572;-43
2024/01/21 02:22:42;;;;;;;3.17;2.30;;;;;;;-0.18;70.06;101834.72;4943054;29;20278;-42
2024/01/21 02:25:08;;;;;;;3.78;2.42;;;;;;;-0.16;69.56;101823.34;4941990;29;20820;-43
2024/01/21 02:27:34;;;;;;;2.90;2.15;;;;;;;-0.16;69.24;101819.81;4941544;29;20233;-42
2024/01/21 02:30:00;;;;;;;4.75;2.60;;;;;;;-0.17;69.31;101818.06;4949066;29;20179;-41
2024/01/21 02:32:26;;;;;;;3.15;2.15;;;;;;;-0.19;68.83;101820.66;4943331;29;20195;-42
2024/01/21 02:34:52;;;;;;;2.70;1.90;;;;;;;-0.17;68.70;101816.31;4944810;28;20304;-43
2024/01/21 02:37:18;;;;;;;3.20;2.35;;;;;;;-0.19;68.61;101812.75;4947088;29;20214;-42
2024/01/21 02:39:44;;;;;;;3.38;2.45;;;;;;;-0.20;68.60;101810.97;4938804;28;20205;-44
2024/01/21 02:42:10;;;;;;;3.70;2.30;;;;;;;-0.16;68.08;101804.03;4942095;28;20191;-42
2024/01/21 02:48:04;;;;;;;3.03;1.90;;;;;;;-0.10;67.31;101783.97;4910329;29;20740;-43
2024/01/21 02:50:30;;;;;;;3.70;2.08;;;;;;;-0.13;67.30;101778.66;4942623;29;20183;-41
2024/01/21 02:52:55;;;;;;;3.00;2.13;;;;;;;-0.07;67.34;101788.41;4942168;29;20726;-41
2024/01/21 02:55:21;;;;;;;2.25;2.03;;;;;;;-0.09;66.67;101779.59;4946060;29;20715;-42
2024/01/21 02:57:46;;;;;;;4.63;1.95;;;;;;;-0.13;67.02;101780.38;4943367;29;20528;-41
2024/01/21 03:00:12;;;;;;;2.60;2.03;;;;;;;-0.03;66.51;101777.09;4950141;29;20194;-43
2024/01/21 03:02:38;;;;;;;2.65;1.90;;;;;;;-0.06;66.69;101764.75;4942693;29;20191;-42
2024/01/21 03:05:04;;;;;;;3.13;1.90;;;;;;;-0.08;66.29;101769.09;4933461;29;20618;-41
2024/01/21 03:07:29;;;;;;;2.53;1.90;;;;;;;-0.10;66.26;101762.03;4948353;29;20187;-41
2024/01/21 03:09:55;;;;;;;2.85;2.13;;;;;;;-0.09;65.91;101759.44;4936972;29;20190;-42
2024/01/21 03:12:20;;;;;;;1.65;1.55;;;;;;;-0.07;65.78;101764.69;4943170;29;20607;-41
2024/01/21 03:14:45;;;;;;;2.70;1.63;;;;;;;-0.05;65.74;101753.34;4947756;29;20233;-42
2024/01/21 03:17:11;;;;;;;2.38;1.80;;;;;;;-0.08;66.03;101740.13;4947051;29;20198;-41
2024/01/21 03:19:36;;;;;;;3.03;1.77;;;;;;;-0.10;65.78;101744.47;4944806;29;20585;-41
2024/01/21 03:22:02;;;;;;;2.90;1.70;;;;;;;-0.14;65.64;101744.38;4942279;29;20350;-40
2024/01/21 03:24:30;;;;;;;1.95;1.83;;;;;;;-0.10;65.46;101747.09;4930341;29;20262;-41
2024/01/21 03:26:55;;;;;;;3.35;1.90;;;;;;;-0.07;65.03;101726.06;4947537;29;20237;-42
2024/01/21 03:29:21;;;;;;;2.97;1.77;;;;;;;-0.04;64.71;101733.19;4947418;29;20187;-43
2024/01/21 03:31:46;;;;;;;2.58;1.75;;;;;;;-0.02;64.77;101729.72;4942661;29;20245;-43
2024/01/21 03:34:12;;;;;;;4.03;1.90;;;;;;;-0.05;64.24;101729.63;4944816;29;20205;-42
2024/01/21 03:36:37;;;;;;;4.32;1.95;;;;;;;-0.03;64.17;101716.50;4943828;29;20204;-42
2024/01/21 03:39:03;;;;;;;3.17;2.03;;;;;;;-0.11;64.41;101703.19;4948246;28;20252;-43
2024/01/21 03:41:29;;;;;;;2.50;1.75;;;;;;;-0.14;64.02;101702.22;4939916;29;20213;-42
2024/01/21 03:43:54;;;;;;;3.13;2.08;;;;;;;-0.14;64.26;101702.22;4917645;29;20180;-42
2024/01/21 03:46:20;;;;;;;2.80;1.83;;;;;;;-0.18;63.92;101692.50;4947910;29;20302;-42
2024/01/21 03:48:45;;;;;;;4.15;2.00;;;;;;;-0.16;64.09;101696.03;4944049;29;20177;-41
2024/01/21 03:51:11;;;;;;;2.65;1.77;;;;;;;-0.15;63.54;101696.09;4941928;29;20559;-41
2024/01/21 03:53:40;;;;;;;2.13;1.70;;;;;;;-0.10;63.52;101673.34;4942123;29;20191;-42
2024/01/21 03:56:06;;;;;;;2.42;1.70;;;;;;;-0.05;62.81;101662.91;4948377;29;20525;-43
2024/01/21 03:58:32;;;;;;;2.25;1.80;;;;;;;-0.02;62.44;101668.25;4947385;29;20665;-43
2024/01/21 04:00:58;;;;;;;2.13;1.60;;;;;;;-0.09;62.79;101654.06;4947044;29;20185;-41
2024/01/21 04:03:25;;;;;;;2.20;1.60;;;;;;;-0.06;62.39;101651.47;4948614;28;20179;-40
2024/01/21 04:05:50;;;;;;;2.10;1.70;;;;;;;0.07;61.75;101646.44;4944772;29;20217;-42
2024/01/21 04:08:17;;;;;;;3.92;1.70;;;;;;;0.05;61.76;101635.00;4946965;29;20182;-41
2024/01/21 04:10:42;;;;;;;4.18;1.90;;;;;;;-0.03;62.14;101627.81;4931331;29;20316;-42
2024/01/21 04:13:09;;;;;;;2.45;1.70;;;;;;;0.04;61.58;101620.91;4943262;29;20245;-41
2024/01/21 04:15:34;;;;;;;2.22;1.80;;;;;;;0.14;61.32;101603.53;4943705;29;20678;-42
2024/01/21 04:18:00;;;;;;;1.73;1.58;;;;;;;0.16;60.52;101600.03;4948296;28;20194;-43
2024/01/21 04:20:25;;;;;;;2.00;1.70;;;;;;;0.22;60.34;101598.38;4954828;28;20186;-42
2024/01/21 04:22:51;;;;;;;1.90;1.55;;;;;;;0.19;60.21;101580.75;4951950;28;20175;-42
2024/01/21 04:25:16;;;;;;;2.20;1.90;;;;;;;0.20;60.25;101574.66;4948506;28;20213;-42
2024/01/21 04:27:42;;;;;;;3.15;1.60;;;;;;;0.17;60.39;101578.09;4946005;28;20175;-40
2024/01/21 04:30:07;;;;;;;2.10;1.50;;;;;;;0.30;59.81;101568.63;4956230;28;20210;-43
2024/01/21 04:32:33;;;;;;;2.60;1.60;;;;;;;0.34;59.27;101559.91;4952888;28;20183;-42
2024/01/21 04:34:58;;;;;;;2.33;1.70;;;;;;;0.37;58.75;101551.16;4945821;29;20245;-43
2024/01/21 04:37:24;;;;;;;1.83;1.40;;;;;;;0.34;58.91;101545.88;4953059;28;20270;-43
2024/01/21 04:39:49;;;;;;;1.67;1.58;;;;;;;0.34;58.79;101537.97;4944681;29;20191;-42
2024/01/21 04:42:15;;;;;;;2.22;1.70;;;;;;;0.35;58.60;101538.00;4943316;29;20195;-42
2024/01/21 04:44:40;;;;;;;2.55;1.73;;;;;;;0.39;58.17;101533.63;4947336;28;20590;-43
2024/01/21 04:47:05;;;;;;;2.47;1.52;;;;;;;0.40;57.87;101514.34;4947277;28;20190;-43
2024/01/21 04:49:31;;;;;;;2.15;1.67;;;;;;;0.41;58.08;101522.22;4950035;29;20281;-44
2024/01/21 04:51:57;;;;;;;1.95;1.52;;;;;;;0.47;57.75;101520.56;4943634;29;20214;-42
2024/01/21 04:54:22;;;;;;;2.17;1.60;;;;;;;0.58;56.88;101500.50;4950053;29;20674;-41
2024/01/21 04:56:48;;;;;;;2.63;1.70;;;;;;;0.52;56.70;101495.16;4942701;29;20210;-42
2024/01/21 04:59:13;;;;;;;4.45;1.65;;;;;;;0.55;56.29;101493.44;4949377;29;20178;-41
2024/01/21 05:01:40;;;;;;;1.63;1.40;;;;;;;0.60;55.95;101488.25;4944382;29;20360;-42
2024/01/21 05:04:05;;;;;;;2.60;1.70;;;;;;;0.57;55.87;101477.66;4947354;29;20187;-42
2024/01/21 05:06:31;;;;;;;2.28;1.50;;;;;;;0.50;56.12;101481.06;4947296;29;20285;-42
2024/01/21 05:08:56;;;;;;;1.88;1.48;;;;;;;0.54;56.21;101465.31;4932920;29;20257;-42
2024/01/21 05:11:22;;;;;;;3.13;1.88;;;;;;;0.50;56.38;101465.25;4942100;29;20721;-43
2024/01/21 05:13:47;;;;;;;1.73;1.63;;;;;;;0.48;56.27;101470.50;4945667;28;20199;-42
2024/01/21 05:16:13;;;;;;;3.38;1.60;;;;;;;0.45;56.19;101462.56;4945471;29;20194;-43
2024/01/21 05:18:39;;;;;;;2.33;1.73;;;;;;;0.37;56.81;101465.09;4944947;29;20555;-43
2024/01/21 05:21:05;;;;;;;3.28;1.60;;;;;;;0.42;56.46;101454.63;4949323;29;20233;-42
2024/01/21 05:23:32;;;;;;;3.17;1.90;;;;;;;0.35;56.77;101452.72;4927537;29;20187;-41
2024/01/21 05:25:57;;;;;;;2.90;1.90;;;;;;;0.35;56.79;101455.38;4945697;29;20238;-43
2024/01/21 05:28:22;;;;;;;1.90;1.70;;;;;;;0.34;56.75;101448.34;4938848;29;20183;-41
2024/01/21 05:30:48;;;;;;;2.80;1.30;;;;;;;0.26;57.34;101457.88;4942388;29;20650;-42
2024/01/21 05:33:13;;;;;;;3.22;1.77;;;;;;;0.27;57.25;101441.22;4939731;29;20187;-43
2024/01/21 05:35:39;;;;;;;1.92;1.67;;;;;;;0.26;57.38;101447.34;4946700;29;20281;-42
2024/01/21 05:38:05;;;;;;;3.10;1.90;;;;;;;0.27;57.29;101452.66;4947960;29;20614;-43
2024/01/21 05:40:30;;;;;;;1.50;1.40;;;;;;;0.25;57.53;101451.75;4943531;29;20214;-43
2024/01/21 05:42:56;;;;;;;1.95;1.63;;;;;;;0.23;57.22;101429.75;4943782;29;20214;-42
2024/01/21 05:45:22;;;;;;;1.90;1.58;;;;;;;0.26;56.97;101434.16;4945271;29;20254;-40
2024/01/21 05:47:48;;;;;;;4.80;1.77;;;;;;;0.26;56.93;101419.22;4941760;29;20215;-43
2024/01/21 05:50:13;;;;;;;2.90;1.98;;;;;;;0.21;57.24;101420.94;4937036;29;20219;-43
2024/01/21 05:52:39;;;;;;;2.08;1.60;;;;;;;0.23;57.46;101419.22;4944017;29;20176;-43
2024/01/21 05:55:05;;;;;;;2.08;1.70;;;;;;;0.24;57.15;101421.00;4949796;29;20230;-44
2024/01/21 05:57:30;;;;;;;3.45;1.70;;;;;;;0.21;57.17;101418.28;4932702;29;20195;-43
2024/01/21 05:59:56;;;;;;;2.22;1.95;;;;;;;0.25;57.35;101408.69;4946665;29;20183;-42
2024/01/21 06:02:21;;;;;;;2.70;2.20;;;;;;;0.19;57.68;101407.72;4944382;29;20565;-42
2024/01/21 06:04:47;;;;;;;4.13;1.85;;;;;;;0.17;57.86;101408.56;4942466;29;20213;-41
2024/01/21 06:07:13;;;;;;;2.42;1.63;;;;;;;0.15;57.84;101407.66;4948357;29;20330;-41
2024/01/21 06:09:38;;;;;;;2.65;1.90;;;;;;;0.17;57.20;101392.75;4943384;29;20184;-42
2024/01/21 06:12:04;;;;;;;3.97;1.75;;;;;;;0.10;57.87;101401.47;4939745;29;20641;-42
2024/01/21 06:14:29;;;;;;;2.00;1.80;;;;;;;0.17;57.28;101382.22;4940648;29;20535;-42
2024/01/21 06:16:55;;;;;;;1.80;1.70;;;;;;;0.23;57.37;101389.34;4939091;29;20175;-43
2024/01/21 06:19:20;;;;;;;2.80;1.80;;;;;;;0.21;57.42;101381.41;4947414;29;20210;-44
2024/01/21 06:21:46;;;;;;;2.70;2.10;;;;;;;0.24;57.04;101370.00;4944858;29;20609;-42
2024/01/21 06:24:12;;;;;;;1.95;1.70;;;;;;;0.23;57.10;101361.22;4942113;29;20187;-41
2024/01/21 06:26:38;;;;;;;1.98;1.77;;;;;;;0.24;57.29;101357.75;4931032;29;20219;-42
2024/01/21 06:29:04;;;;;;;2.25;2.05;;;;;;;0.24;56.65;101359.47;4948406;29;20261;-42
2024/01/21 06:31:30;;;;;;;2.83;2.22;;;;;;;0.27;56.31;101341.97;4940943;29;20322;-42
2024/01/21 06:33:55;;;;;;;4.13;2.22;;;;;;;0.29;56.55;101345.50;4943232;29;20199;-42
2024/01/21 06:36:22;;;;;;;2.28;1.95;;;;;;;0.30;56.13;101341.09;4950829;29;20202;-42
2024/01/21 06:38:48;;;;;;;2.63;1.88;;;;;;;0.37;56.01;101324.50;4947947;29;20215;-41
2024/01/21 06:41:15;;;;;;;2.78;1.60;;;;;;;0.34;55.68;101312.16;4944635;29;20661;-43
2024/01/21 06:43:40;;;;;;;3.78;2.28;;;;;;;0.34;55.59;101304.25;4941340;29;20669;-42
2024/01/21 06:46:07;;;;;;;3.67;2.20;;;;;;;0.41;55.34;101302.56;4951963;29;20211;-41
2024/01/21 06:48:32;;;;;;;2.33;1.70;;;;;;;0.51;54.88;101290.41;4952273;29;20181;-43
2024/01/21 06:50:58;;;;;;;3.22;1.70;;;;;;;0.53;54.55;101278.13;4936216;29;20180;-43
2024/01/21 06:53:23;;;;;;;2.45;1.92;;;;;;;0.58;54.13;101274.63;4946408;29;20230;-41
2024/01/21 06:55:49;;;;;;;2.13;1.75;;;;;;;0.61;54.01;101274.69;4929528;29;20200;-41
2024/01/21 06:58:15;;;;;;;3.05;1.92;;;;;;;0.61;54.01;101268.50;4951432;29;20743;-42
2024/01/21 07:00:41;;;;;;;1.98;1.77;;;;;;;0.63;53.47;101255.34;4952215;29;20195;-44
2024/01/21 07:03:07;;;;;;;2.40;1.92;;;;;;;0.67;53.31;101260.66;4946020;29;20175;-42
2024/01/21 07:05:33;;;;;;;2.10;1.90;;;;;;;0.70;52.85;101246.59;4944285;29;20214;-42
2024/01/21 07:07:58;;;;;;;4.75;1.80;;;;;;;0.68;52.90;101246.63;4946852;29;20190;-41
2024/01/21 07:10:24;;;;;;;2.03;1.73;;;;;;;0.73;52.80;101226.44;4935609;29;20289;-41
2024/01/21 07:12:51;;;;;;;2.95;1.85;;;;;;;0.71;52.55;101230.81;4947672;29;20183;-42
2024/01/21 07:15:16;;;;;;;3.47;1.85;;;;;;;0.70;52.71;101226.44;4948398;29;20202;-41
2024/01/21 07:17:43;;;;;;;4.63;2.13;;;;;;;0.75;52.28;101214.16;4949623;29;20210;-42
2024/01/21 07:20:12;;;;;;;2.88;1.83;;;;;;;0.76;52.19;101234.34;4945070;29;20207;-43
2024/01/21 07:22:38;;;;;;;2.08;1.60;;;;;;;0.79;52.26;101215.06;4949472;29;20191;-43
2024/01/21 07:25:04;;;;;;;2.28;1.65;;;;;;;0.73;52.21;101204.47;4948662;28;20199;-43
2024/01/21 07:27:29;;;;;;;2.03;1.80;;;;;;;0.76;52.12;101201.84;4944977;29;20346;-43
2024/01/21 07:29:54;;;;;;;1.88;1.77;;;;;;;0.84;51.70;101194.00;4941167;29;20258;-41
2024/01/21 07:32:20;;;;;;;1.92;1.70;;;;;;;0.79;51.65;101200.13;4949565;29;20344;-41
2024/01/21 07:34:45;;;;;;;1.88;1.63;;;;;;;0.79;51.61;101188.69;4945535;29;20583;-46
2024/01/21 07:37:11;;;;;;;3.00;1.65;;;;;;;0.74;52.35;101193.91;4926668;29;20209;-43
2024/01/21 07:39:37;;;;;;;1.85;1.75;;;;;;;0.75;51.88;101185.13;4949572;29;20186;-43
2024/01/21 07:42:02;;;;;;;2.47;1.85;;;;;;;0.76;52.13;101165.78;4943393;29;20678;-43
2024/01/21 07:44:28;;;;;;;1.92;1.58;;;;;;;0.81;51.60;101143.00;4934233;29;20284;-43
2024/01/21 07:46:54;;;;;;;3.67;1.98;;;;;;;0.80;51.38;101135.94;4946519;29;20179;-42
2024/01/21 07:49:19;;;;;;;2.13;1.60;;;;;;;0.81;51.46;101136.84;4944711;29;20180;-43
2024/01/21 07:51:46;;;;;;;1.75;1.48;;;;;;;0.82;51.12;101125.41;4943255;29;20764;-42
2024/01/21 07:54:11;;;;;;;2.42;1.60;;;;;;;0.80;51.47;101108.69;4950861;29;20194;-43
2024/01/21 07:56:37;;;;;;;1.60;1.45;;;;;;;0.84;51.51;101114.88;4939757;29;20194;-43
2024/01/21 07:59:02;;;;;;;1.58;1.42;;;;;;;0.81;51.28;101116.63;4946354;29;20289;-40
2024/01/21 08:01:28;;;;;;;2.22;1.65;;;;;;;0.83;51.15;101108.69;4940690;29;20219;-42
2024/01/21 08:03:53;;;;;;;1.77;1.40;;;;;;;0.86;50.87;101090.25;4942726;29;20266;-43
2024/01/21 08:06:19;;;;;;;2.63;1.70;;;;;;;0.90;50.73;101091.19;4946157;29;20212;-41
2024/01/21 08:08:45;;;;;;;1.38;1.25;;;;;;;0.87;50.87;101091.13;4944000;29;20658;-42
2024/01/21 08:11:10;;;;;;;1.88;1.30;;;;;;;0.93;50.28;101091.19;4941774;29;20225;-42
2024/01/21 08:13:36;;;;;;;1.80;1.38;;;;;;;0.86;50.66;101076.19;4938682;29;20179;-42
2024/01/21 08:16:01;;;;;;;1.80;1.50;;;;;;;0.87;50.55;101078.81;4943336;29;20637;-42
2024/01/21 08:18:26;;;;;;;1.77;1.65;;;;;;;0.89;50.75;101073.56;4941179;29;20208;-42
2024/01/21 08:20:52;;;;;;;2.33;1.70;;;;;;;0.90;50.59;101088.53;4945682;29;20176;-42
2024/01/21 08:23:18;;;;;;;1.85;1.50;;;;;;;0.98;50.17;101076.25;4949451;29;20237;-42
2024/01/21 08:25:43;;;;;;;1.35;1.23;;;;;;;1.01;49.98;101084.19;4924804;29;20241;-43
2024/01/21 08:28:09;;;;;;;1.30;1.20;;;;;;;0.95;50.00;101077.13;4947558;29;20325;-43
2024/01/21 08:30:34;;;;;;;1.55;1.38;;;;;;;0.96;50.20;101083.28;4945032;29;20186;-42
2024/01/21 08:33:00;;;;;;;1.50;1.40;;;;;;;0.94;50.46;101072.72;4941240;29;20583;-43
2024/01/21 08:35:25;;;;;;;2.28;1.80;;;;;;;0.96;50.26;101059.53;4928345;29;20211;-41
2024/01/21 08:37:50;;;;;;;3.15;1.33;;;;;;;0.96;50.44;101046.34;4940882;29;20280;-42
2024/01/21 08:40:16;;;;;;;1.63;1.40;;;;;;;0.92;50.66;101040.19;4946145;29;20206;-44
2024/01/21 08:42:42;;;;;;;2.33;1.23;;;;;;;0.99;50.14;101002.41;4941569;29;20455;-42
2024/01/21 08:45:08;;;;;;;1.20;1.05;;;;;;;1.03;49.89;101003.28;4950586;29;20199;-43
2024/01/21 08:47:34;;;;;;;2.17;1.70;;;;;;;1.08;49.65;100991.00;4945053;28;20194;-42
2024/01/21 08:50:00;;;;;;;1.55;1.45;;;;;;;1.12;49.20;100961.09;4947741;29;20669;-43
2024/01/21 08:52:25;;;;;;;1.88;1.40;;;;;;;1.10;49.36;100975.16;4940784;29;20286;-43
2024/01/21 08:54:51;;;;;;;1.95;1.83;;;;;;;1.15;49.42;100970.78;4941135;29;20293;-43
2024/01/21 08:57:17;;;;;;;2.25;1.60;;;;;;;1.21;48.73;100953.19;4941384;29;20671;-43
2024/01/21 08:59:42;;;;;;;2.28;1.30;;;;;;;1.24;49.17;100991.91;4941506;29;20176;-52
2024/01/21 09:02:08;;;;;;;2.58;1.48;;;;;;;1.23;48.91;101017.44;4944285;29;20306;-44
2024/01/21 09:04:35;;;;;;;1.30;1.20;;;;;;;1.28;48.94;101011.28;4942751;29;20266;-42
2024/01/21 09:07:00;;;;;;;1.58;1.40;;;;;;;1.30;48.80;101036.81;4940215;29;20614;-43
2024/01/21 09:09:25;;;;;;;2.10;1.60;;;;;;;1.29;48.81;101029.78;4941847;29;20178;-44
2024/01/21 09:11:51;;;;;;;1.73;1.63;;;;;;;1.31;48.84;101021.84;4938003;29;20286;-41
2024/01/21 09:14:17;;;;;;;3.38;1.40;;;;;;;1.31;49.00;101024.47;4945042;29;20175;-43
2024/01/21 09:16:43;;;;;;;1.88;1.52;;;;;;;1.30;49.05;101005.13;4945948;29;20194;-42
2024/01/21 09:19:09;;;;;;;1.80;1.70;;;;;;;1.31;49.25;101016.56;4947055;29;20219;-43
2024/01/21 09:21:34;;;;;;;1.85;1.20;;;;;;;1.35;49.60;100999.84;4949474;29;20187;-42
2024/01/21 09:24:03;;;;;;;2.38;1.88;;;;;;;1.28;49.47;100985.75;4942936;29;20179;-41
2024/01/21 09:26:29;;;;;;;1.95;1.40;;;;;;;1.31;49.31;100984.88;4938528;29;20218;-42
2024/01/21 09:28:55;;;;;;;4.40;1.50;;;;;;;1.35;49.37;100962.91;4922005;29;20183;-42
2024/01/21 09:31:20;;;;;;;3.08;1.25;;;;;;;1.35;49.45;100976.09;4943651;29;20183;-41
2024/01/21 09:33:46;;;;;;;3.85;1.80;;;;;;;1.37;49.36;100972.56;4944752;29;20213;-42
2024/01/21 09:36:12;;;;;;;1.88;1.73;;;;;;;1.41;49.02;100984.03;4943531;29;20187;-42
2024/01/21 09:38:37;;;;;;;1.70;1.33;;;;;;;1.40;48.92;100969.06;4945844;29;20252;-43
2024/01/21 09:41:41;;;;;;;3.17;1.42;;;;;;;1.46;48.80;100974.34;4939482;29;20184;-43
2024/01/21 09:44:06;;;;;;;2.17;1.35;;;;;;;1.48;48.67;100948.84;4945034;28;20222;-42
2024/01/21 09:46:32;;;;;;;1.45;1.35;;;;;;;1.53;48.86;100948.84;4950060;29;20250;-42
2024/01/21 09:49:01;;;;;;;1.85;1.42;;;;;;;1.51;48.70;100948.84;4925536;29;20199;-42
2024/01/21 09:51:29;;;;;;;1.83;1.48;;;;;;;1.50;48.68;100938.28;4946856;29;20186;-42
2024/01/21 09:53:55;;;;;;;7.28;1.88;;;;;;;1.52;48.47;100940.03;4944729;29;20171;-42
2024/01/21 09:56:21;;;;;;;1.63;1.30;;;;;;;1.54;48.77;100969.09;4947798;29;20218;-43
2024/01/21 09:58:51;;;;;;;1.63;1.38;;;;;;;1.62;48.96;100985.84;4948825;29;20303;-43
2024/01/21 10:01:18;;;;;;;2.53;1.85;;;;;;;1.63;48.39;100987.59;4943080;29;20202;-41
2024/01/21 10:03:44;;;;;;;2.33;1.40;;;;;;;1.70;48.27;100985.81;4942184;29;20541;-40
2024/01/21 10:06:10;;;;;;;1.77;1.63;;;;;;;1.74;48.09;100971.75;4944184;29;20231;-42
2024/01/21 10:08:37;;;;;;;3.03;1.70;;;;;;;1.79;48.09;100983.19;4943647;29;20207;-42
2024/01/21 10:11:04;;;;;;;1.50;1.20;;;;;;;1.81;47.75;100968.22;4924391;29;20661;-41
2024/01/21 10:13:38;;;;;;;1.55;1.40;;;;;;;1.80;47.81;100955.91;4945982;29;20195;-41
2024/01/21 10:16:07;;;;;;;2.50;1.60;;;;;;;1.82;47.81;100947.09;4942239;29;20253;-41
2024/01/21 10:18:33;;;;;;;3.53;1.70;;;;;;;1.87;47.68;100943.56;4944326;29;20560;-42
2024/01/21 10:21:02;;;;;;;1.77;1.52;;;;;;;1.79;47.95;100931.25;4935470;29;20195;-43
2024/01/21 10:23:32;;;;;;;1.40;1.27;;;;;;;1.86;47.68;100940.06;4926562;29;20668;-42
2024/01/21 10:25:58;;;;;;;2.30;1.65;;;;;;;1.92;47.86;100944.44;4937970;29;20215;-41
2024/01/21 10:28:24;;;;;;;2.05;1.70;;;;;;;1.99;47.59;100925.03;4929692;29;20649;-43
2024/01/21 10:30:50;;;;;;;1.80;1.48;;;;;;;2.05;47.36;100919.75;4945203;29;20186;-43
2024/01/21 10:33:15;;;;;;;1.48;1.38;;;;;;;2.12;47.24;100929.44;4935978;29;20187;-41
2024/01/21 10:35:42;;;;;;;2.63;2.03;;;;;;;2.16;47.41;100931.16;4944199;29;20209;-42
2024/01/21 10:38:11;;;;;;;3.55;1.85;;;;;;;2.25;47.21;100923.25;4942204;29;20195;-43
2024/01/21 10:40:44;;;;;;;1.70;1.60;;;;;;;2.31;47.29;100903.81;4950809;29;20321;-43
2024/01/21 10:43:14;;;;;;;2.60;1.48;;;;;;;2.44;47.35;100918.75;4937620;29;20190;-41
2024/01/21 10:45:43;;;;;;;3.97;1.80;;;;;;;2.48;47.23;100915.22;4935237;29;20368;-40
2024/01/21 10:48:11;;;;;;;1.90;1.50;;;;;;;2.47;47.07;100897.63;4940566;29;20428;-41
2024/01/21 10:50:40;;;;;;;2.05;1.67;;;;;;;2.53;46.68;100890.53;4938307;29;20186;-42
2024/01/21 10:53:08;;;;;;;3.95;1.73;;;;;;;2.63;46.85;100900.19;4948729;29;20191;-41
2024/01/21 10:55:36;;;;;;;2.50;1.80;;;;;;;2.61;46.78;100897.53;4945397;29;20199;-43
2024/01/21 10:58:01;;;;;;;3.30;2.03;;;;;;;2.61;47.06;100886.09;4941194;29;20203;-43
2024/01/21 11:00:27;;;;;;;3.95;1.77;;;;;;;2.55;47.80;100901.97;4945453;29;20194;-42
2024/01/21 11:03:21;;;;;;;2.17;1.90;;;;;;;2.43;48.98;100919.66;4941613;29;20266;-43
2024/01/21 11:05:47;;;;;;;2.40;1.80;;;;;;;2.41;49.37;100907.34;4945000;29;20713;-42
2024/01/21 11:08:15;;;;;;;1.83;1.70;;;;;;;2.31;50.23;100917.03;4929380;29;20271;-44
2024/01/21 11:10:40;;;;;;;3.97;2.33;;;;;;;2.28;51.31;100940.00;4925104;28;20195;-42
2024/01/21 11:13:06;;;;;;;2.03;1.83;;;;;;;2.23;51.87;100950.53;4950888;29;20191;-43
2024/01/21 11:15:32;;;;;;;4.28;2.00;;;;;;;2.20;53.21;100964.66;4945826;29;20199;-43
2024/01/21 11:18:11;;;;;;;1.80;1.60;;;;;;;2.21;53.81;100982.28;4949380;29;20229;-43
2024/01/21 11:20:39;;;;;;;2.05;1.88;;;;;;;2.18;54.50;100984.91;4949251;29;20178;-43
2024/01/21 11:23:14;;;;;;;5.15;2.00;;;;;;;2.16;55.34;101028.09;4951849;29;20347;-43
2024/01/21 11:25:49;;;;;;;5.55;2.17;;;;;;;2.10;56.03;101034.28;4948986;29;20207;-43
2024/01/21 11:28:28;;;;;;;3.95;2.40;;;;;;;2.09;56.86;101052.78;4950729;29;20277;-44
2024/01/21 11:31:06;;;;;;;3.30;1.92;;;;;;;2.08;57.14;101082.72;4948827;29;20278;-43